Time;durP1;ratioP1;P1;durP2;ratioP2;P2;SDS_P1;SDS_P2;PMS_P1;PMS_P2;Temp;Humidity;BMP_temperature;BMP_pressure;BME280_temperature;BME280_humidity;BME280_pressure;Samples;Min_cycle;Max_cycle;Signal;HPM_P1;HPM_P2
2024/03/09 00:01:09;;;;;;;61.80;32.05;;;;;;;7.87;100.00;100469.81;5134186;27;20068;-45
2024/03/09 00:03:37;;;;;;;58.80;29.92;;;;;;;8.02;100.00;100458.50;5134304;27;20051;-44
2024/03/09 00:06:10;;;;;;;63.30;31.65;;;;;;;7.72;100.00;100460.75;5134838;27;20405;-44
2024/03/09 00:08:39;;;;;;;64.70;31.60;;;;;;;7.84;100.00;100464.66;5134959;27;20054;-44
2024/03/09 00:11:07;;;;;;;61.65;30.30;;;;;;;7.83;100.00;100458.50;5134604;27;20449;-44
2024/03/09 00:13:37;;;;;;;59.35;31.40;;;;;;;7.66;100.00;100463.69;5134113;27;20412;-43
2024/03/09 00:16:08;;;;;;;56.97;30.10;;;;;;;7.71;100.00;100461.69;5132437;27;20049;-45
2024/03/09 00:18:37;;;;;;;61.15;30.25;;;;;;;7.86;100.00;100460.13;5133999;27;20039;-45
2024/03/09 00:21:14;;;;;;;61.83;31.60;;;;;;;7.77;100.00;100458.75;5133985;27;20059;-44
2024/03/09 00:23:42;;;;;;;60.58;31.23;;;;;;;7.90;100.00;100459.91;5133776;27;20047;-45
2024/03/09 00:26:12;;;;;;;60.95;30.42;;;;;;;7.98;100.00;100451.59;5134092;27;20043;-44
2024/03/09 00:28:40;;;;;;;58.92;30.05;;;;;;;8.07;100.00;100455.63;5134341;27;20050;-45
2024/03/09 00:31:11;;;;;;;60.83;30.38;;;;;;;7.99;100.00;100445.34;5134191;27;20047;-44
2024/03/09 00:33:42;;;;;;;58.85;30.80;;;;;;;8.01;100.00;100440.84;5133912;27;20495;-42
2024/03/09 00:36:11;;;;;;;63.45;30.95;;;;;;;7.91;100.00;100440.41;5134074;27;20428;-45
2024/03/09 00:38:45;;;;;;;58.33;30.60;;;;;;;7.96;100.00;100443.69;5133686;27;20063;-43
2024/03/09 00:41:13;;;;;;;;;;;;;;;8.16;100.00;100444.56;5133892;27;20047;-43
2024/03/09 00:43:44;;;;;;;57.78;28.30;;;;;;;8.25;100.00;100438.81;5133402;27;19926;-44
2024/03/09 00:46:13;;;;;;;56.03;29.98;;;;;;;8.28;100.00;100438.66;5133515;27;20044;-45
2024/03/09 00:48:42;;;;;;;60.03;29.92;;;;;;;8.10;100.00;100443.03;5133303;27;20061;-43
2024/03/09 00:51:11;;;;;;;60.10;30.38;;;;;;;8.00;100.00;100431.13;5133213;27;20047;-44
2024/03/09 00:53:41;;;;;;;60.97;30.83;;;;;;;8.03;100.00;100434.53;5133156;27;20047;-44
2024/03/09 00:56:09;;;;;;;57.53;29.63;;;;;;;7.89;100.00;100430.78;5132989;27;20055;-44
2024/03/09 00:58:38;;;;;;;63.80;30.40;;;;;;;7.78;100.00;100425.97;5133281;27;20466;-44
2024/03/09 01:01:06;;;;;;;62.72;31.48;;;;;;;7.81;100.00;100423.16;5132863;27;20054;-44
2024/03/09 01:03:35;;;;;;;59.15;30.75;;;;;;;7.95;100.00;100427.84;5132855;27;20082;-44
2024/03/09 01:06:05;;;;;;;54.83;29.13;;;;;;;7.96;100.00;100421.59;5133290;27;20143;-44
2024/03/09 01:08:34;;;;;;;57.05;29.35;;;;;;;7.96;100.00;100416.28;5132791;27;20459;-44
2024/03/09 01:11:05;;;;;;;55.40;29.50;;;;;;;7.93;100.00;100408.47;5132956;27;20100;-44
2024/03/09 01:13:34;;;;;;;58.15;30.10;;;;;;;7.95;100.00;100406.59;5115109;27;20096;-43
2024/03/09 01:16:03;;;;;;;61.30;31.48;;;;;;;8.02;100.00;100408.91;5132792;27;20399;-45
2024/03/09 01:18:32;;;;;;;58.15;30.88;;;;;;;7.89;100.00;100405.06;5132708;27;20141;-47
2024/03/09 01:21:00;;;;;;;58.88;29.30;;;;;;;7.96;100.00;100395.88;5132622;27;20062;-43
2024/03/09 01:23:30;;;;;;;58.42;30.42;;;;;;;8.00;100.00;100397.44;5132458;27;20043;-45
2024/03/09 01:25:59;;;;;;;60.78;31.27;;;;;;;8.03;100.00;100396.47;5132731;27;20043;-43
2024/03/09 01:28:30;;;;;;;64.05;29.85;;;;;;;8.19;100.00;100394.78;5132131;27;20488;-43
2024/03/09 01:31:00;;;;;;;55.90;29.48;;;;;;;8.16;100.00;100386.97;5132558;27;20047;-43
2024/03/09 01:33:28;;;;;;;57.50;29.83;;;;;;;8.09;100.00;100390.00;5132390;27;20055;-44
2024/03/09 01:35:57;;;;;;;61.28;30.60;;;;;;;8.17;100.00;100380.72;5132224;27;20123;-43
2024/03/09 01:38:26;;;;;;;58.38;30.63;;;;;;;8.20;100.00;100371.72;5132512;27;20047;-44
2024/03/09 01:40:55;;;;;;;58.72;29.50;;;;;;;8.23;100.00;100376.91;5132819;27;20087;-44
2024/03/09 01:43:23;;;;;;;60.83;30.00;;;;;;;8.31;100.00;100369.44;5132381;27;20054;-44
2024/03/09 01:45:53;;;;;;;56.65;30.33;;;;;;;8.03;100.00;100370.75;5132213;27;20055;-45
2024/03/09 01:48:22;;;;;;;64.15;31.45;;;;;;;8.04;100.00;100364.50;5132183;27;20050;-45
2024/03/09 01:50:51;;;;;;;59.05;29.90;;;;;;;8.16;100.00;100365.72;5132074;27;20043;-44
2024/03/09 01:53:20;;;;;;;58.25;30.05;;;;;;;8.14;100.00;100356.97;5131924;27;20047;-45
2024/03/09 01:55:49;;;;;;;56.35;30.67;;;;;;;8.15;100.00;100358.69;5132308;27;20395;-43
2024/03/09 01:58:19;;;;;;;55.38;29.63;;;;;;;8.21;100.00;100357.53;5132327;27;20535;-44
2024/03/09 02:00:55;;;;;;;57.78;29.63;;;;;;;8.20;100.00;100345.16;5131981;27;20482;-44
2024/03/09 02:03:25;;;;;;;59.22;29.90;;;;;;;8.30;100.00;100349.13;5132369;27;20047;-44
2024/03/09 02:05:55;;;;;;;56.83;29.75;;;;;;;8.17;100.00;100340.88;5132317;27;20071;-44
2024/03/09 02:08:24;;;;;;;54.08;28.48;;;;;;;7.85;100.00;100336.25;5132388;27;20418;-44
2024/03/09 02:10:53;;;;;;;52.20;27.98;;;;;;;8.03;100.00;100338.03;5132232;27;20046;-45
2024/03/09 02:13:24;;;;;;;54.60;29.75;;;;;;;8.08;100.00;100335.13;5131953;27;20085;-45
2024/03/09 02:15:54;;;;;;;55.53;28.88;;;;;;;8.10;100.00;100335.91;5131852;27;20058;-45
2024/03/09 02:18:24;;;;;;;55.45;28.77;;;;;;;8.02;100.00;100334.50;5131514;27;20150;-44
2024/03/09 02:20:52;;;;;;;52.22;28.00;;;;;;;8.02;100.00;100334.50;5131958;27;20043;-44
2024/03/09 02:23:25;;;;;;;56.10;29.70;;;;;;;7.92;100.00;100338.53;5131747;27;20330;-44
2024/03/09 02:25:56;;;;;;;56.70;28.88;;;;;;;7.90;100.00;100334.22;5131582;27;20051;-44
2024/03/09 02:28:27;;;;;;;56.80;28.48;;;;;;;7.96;100.00;100337.44;5131816;27;20431;-43
2024/03/09 02:30:58;;;;;;;55.85;28.70;;;;;;;8.12;100.00;100339.38;5131839;27;20432;-44
2024/03/09 02:33:27;;;;;;;55.55;29.17;;;;;;;8.02;100.00;100336.31;5131676;27;20530;-43
2024/03/09 02:35:56;;;;;;;59.78;30.35;;;;;;;7.79;100.00;100339.19;5131749;27;20499;-45
2024/03/09 02:38:25;;;;;;;57.75;29.55;;;;;;;7.72;100.00;100341.25;5131380;27;20126;-45
2024/03/09 02:40:55;;;;;;;54.28;28.08;;;;;;;7.72;100.00;100336.84;5131453;27;20043;-44
2024/03/09 02:43:24;;;;;;;57.55;29.13;;;;;;;7.78;100.00;100340.13;5131762;27;20380;-42
2024/03/09 02:45:53;;;;;;;55.20;28.67;;;;;;;7.94;100.00;100339.31;5131568;27;20135;-44
2024/03/09 02:48:22;;;;;;;55.65;28.80;;;;;;;8.00;100.00;100338.16;5131633;28;20065;-43
2024/03/09 02:50:50;;;;;;;51.45;27.63;;;;;;;7.94;100.00;100344.63;5131706;27;20074;-43
2024/03/09 02:53:19;;;;;;;52.10;27.55;;;;;;;8.01;100.00;100340.75;5131595;28;20484;-43
2024/03/09 02:55:48;;;;;;;55.38;28.73;;;;;;;7.91;100.00;100331.53;5131759;27;20039;-43
2024/03/09 02:58:17;;;;;;;53.67;28.20;;;;;;;7.81;100.00;100327.53;5131767;27;20051;-44
2024/03/09 03:00:46;;;;;;;56.80;28.67;;;;;;;7.80;100.00;100331.13;5131471;27;20062;-44
2024/03/09 03:05:59;;;;;;;55.17;27.13;;;;;;;7.66;100.00;100330.94;5131239;27;20039;-44
2024/03/09 03:08:27;;;;;;;52.47;27.88;;;;;;;7.81;100.00;100332.00;5131729;27;20407;-44
2024/03/09 03:10:56;;;;;;;56.20;28.60;;;;;;;7.95;100.00;100326.91;5131723;28;20126;-44
2024/03/09 03:13:26;;;;;;;50.42;27.00;;;;;;;7.78;100.00;100330.34;5131509;28;20066;-44
2024/03/09 03:15:54;;;;;;;53.33;26.67;;;;;;;7.59;100.00;100332.16;5131521;28;20099;-44
2024/03/09 03:18:23;;;;;;;56.03;29.13;;;;;;;7.54;100.00;100320.91;5131404;27;20047;-44
2024/03/09 03:20:53;;;;;;;59.05;28.98;;;;;;;7.36;100.00;100326.13;5131748;28;20051;-44
2024/03/09 03:23:21;;;;;;;54.42;27.33;;;;;;;7.45;100.00;100324.84;5131386;27;20047;-45
2024/03/09 03:25:49;;;;;;;54.65;27.58;;;;;;;7.37;100.00;100327.84;5131522;28;20039;-46
2024/03/09 03:28:18;;;;;;;54.00;27.92;;;;;;;7.59;100.00;100332.16;5131271;28;20539;-43
2024/03/09 03:30:47;;;;;;;54.25;27.95;;;;;;;7.67;100.00;100330.00;5131104;28;20043;-45
2024/03/09 03:33:16;;;;;;;54.53;27.92;;;;;;;7.62;100.00;100329.34;5131263;27;20080;-44
2024/03/09 03:35:44;;;;;;;52.45;27.63;;;;;;;7.77;100.00;100338.41;5131199;27;20104;-44
2024/03/09 03:38:13;;;;;;;53.40;27.70;;;;;;;7.58;100.00;100333.94;5131167;28;20062;-45
2024/03/09 03:40:41;;;;;;;52.28;27.65;;;;;;;7.45;100.00;100331.00;5130957;27;20043;-45
2024/03/09 03:43:10;;;;;;;50.50;27.75;;;;;;;7.34;100.00;100333.31;5130908;27;20055;-44
2024/03/09 03:45:38;;;;;;;55.63;27.92;;;;;;;7.34;100.00;100328.00;5130899;28;20446;-43
2024/03/09 03:48:15;;;;;;;56.28;28.88;;;;;;;7.49;100.00;100331.72;5131176;27;20054;-43
2024/03/09 03:50:43;;;;;;;51.92;27.85;;;;;;;7.50;100.00;100324.63;5132595;27;20039;-44
2024/03/09 03:53:12;;;;;;;52.00;28.13;;;;;;;7.56;100.00;100332.31;5135161;27;20159;-45
2024/03/09 03:55:40;;;;;;;50.63;26.35;;;;;;;7.50;100.00;100332.59;5134799;27;20563;-43
2024/03/09 03:58:09;;;;;;;56.10;28.30;;;;;;;7.46;100.00;100332.72;5134484;27;20051;-44
2024/03/09 04:00:37;;;;;;;55.47;27.70;;;;;;;7.59;100.00;100340.13;5134463;27;20051;-43
2024/03/09 04:03:06;;;;;;;57.42;27.92;;;;;;;7.37;100.00;100333.16;5134525;27;20096;-45
2024/03/09 04:05:38;;;;;;;54.95;27.77;;;;;;;7.18;100.00;100332.25;5134269;27;20528;-44
2024/03/09 04:08:06;;;;;;;51.85;28.00;;;;;;;7.15;100.00;100327.09;5134405;27;20047;-43
2024/03/09 04:10:35;;;;;;;57.17;28.25;;;;;;;7.24;100.00;100325.81;5134112;27;20050;-45
2024/03/09 04:13:05;;;;;;;54.65;28.38;;;;;;;7.37;100.00;100335.81;5134203;27;20078;-45
2024/03/09 04:15:33;;;;;;;56.58;27.88;;;;;;;7.35;100.00;100324.41;5134014;27;20467;-44
2024/03/09 04:18:02;;;;;;;53.97;27.50;;;;;;;7.40;100.00;100333.00;5134568;27;20434;-43
2024/03/09 04:20:34;;;;;;;53.78;27.05;;;;;;;7.46;100.00;100335.38;5134219;27;20051;-43
2024/03/09 04:23:04;;;;;;;56.70;28.77;;;;;;;7.58;100.00;100333.09;5133596;27;20043;-45
2024/03/09 04:25:35;;;;;;;54.45;28.38;;;;;;;7.58;100.00;100330.44;5134000;27;20051;-44
2024/03/09 04:28:06;;;;;;;53.53;28.58;;;;;;;7.56;100.00;100332.31;5133948;27;20095;-42
2024/03/09 04:30:34;;;;;;;58.17;28.20;;;;;;;7.49;100.00;100328.22;5133958;27;20043;-45
2024/03/09 04:33:04;;;;;;;56.25;29.10;;;;;;;7.46;100.00;100327.44;5134121;27;20133;-45
2024/03/09 04:35:34;;;;;;;60.22;29.70;;;;;;;7.31;100.00;100328.13;5133851;27;20419;-45
2024/03/09 04:38:04;;;;;;;56.92;29.70;;;;;;;7.37;100.00;100330.50;5133941;27;20051;-43
2024/03/09 04:40:34;;;;;;;58.75;29.40;;;;;;;7.28;100.00;100327.41;5133499;27;20059;-45
2024/03/09 04:43:04;;;;;;;57.95;29.30;;;;;;;7.44;100.00;100328.44;5133869;27;20479;-46
2024/03/09 04:45:33;;;;;;;55.03;28.42;;;;;;;7.57;100.00;100329.56;5134298;27;20043;-43
2024/03/09 04:48:04;;;;;;;58.17;30.58;;;;;;;7.35;100.00;100335.03;5133736;27;20123;-44
2024/03/09 04:50:34;;;;;;;69.68;32.55;;;;;;;7.25;100.00;100327.56;5133682;27;20058;-45
2024/03/09 04:53:05;;;;;;;61.22;30.42;;;;;;;7.13;100.00;100335.09;5133520;27;20134;-45
2024/03/09 04:55:35;;;;;;;66.68;31.80;;;;;;;7.27;100.00;100337.16;5133312;27;20051;-45
2024/03/09 04:58:13;;;;;;;63.03;31.60;;;;;;;7.42;100.00;100333.78;5133265;27;20062;-45
2024/03/09 05:00:44;;;;;;;63.70;30.85;;;;;;;7.22;100.00;100332.97;5133211;27;20098;-42
2024/03/09 05:03:13;;;;;;;66.32;32.97;;;;;;;7.17;100.00;100325.25;5132489;27;20039;-43
2024/03/09 05:05:43;;;;;;;67.03;32.33;;;;;;;7.19;100.00;100333.97;5133264;27;20043;-43
2024/03/09 05:08:13;;;;;;;63.88;30.92;;;;;;;7.28;100.00;100330.91;5133538;27;20416;-45
2024/03/09 05:10:41;;;;;;;61.70;30.67;;;;;;;7.08;100.00;100321.19;5133233;27;20057;-43
2024/03/09 05:13:10;;;;;;;61.90;31.35;;;;;;;7.04;100.00;100327.56;5133271;27;20100;-45
2024/03/09 05:15:38;;;;;;;67.43;32.67;;;;;;;7.11;100.00;100328.16;5132886;27;20051;-45
2024/03/09 05:18:07;;;;;;;66.88;32.33;;;;;;;7.23;100.00;100321.44;5133270;27;20050;-46
2024/03/09 05:20:37;;;;;;;69.90;32.75;;;;;;;7.11;100.00;100328.16;5133304;27;20058;-45
2024/03/09 05:23:10;;;;;;;74.07;33.72;;;;;;;7.15;100.00;100327.09;5133017;27;20039;-44
2024/03/09 05:25:46;;;;;;;68.10;32.08;;;;;;;7.06;100.00;100324.88;5132810;27;20042;-45
2024/03/09 05:28:15;;;;;;;68.40;31.98;;;;;;;7.32;100.00;100321.88;5132749;27;20047;-44
2024/03/09 05:30:44;;;;;;;63.60;31.58;;;;;;;7.27;100.00;100325.69;5133183;27;20064;-44
2024/03/09 05:33:13;;;;;;;68.63;31.10;;;;;;;7.37;100.00;100326.97;5132944;27;20051;-45
2024/03/09 05:35:42;;;;;;;64.50;31.73;;;;;;;7.17;100.00;100334.06;5133412;27;20111;-48
2024/03/09 05:38:11;;;;;;;71.20;32.25;;;;;;;7.17;100.00;100325.25;5133105;27;20116;-45
2024/03/09 05:40:39;;;;;;;65.43;31.10;;;;;;;7.11;100.00;100315.75;5133255;27;20043;-44
2024/03/09 05:43:11;;;;;;;66.68;31.50;;;;;;;7.18;100.00;100324.31;5133020;27;20481;-44
2024/03/09 05:45:41;;;;;;;68.60;31.97;;;;;;;6.99;100.00;100331.34;5133101;27;20051;-44
2024/03/09 05:48:10;;;;;;;65.00;31.77;;;;;;;7.08;100.00;100330.94;5132895;27;20050;-44
2024/03/09 05:50:39;;;;;;;72.18;33.28;;;;;;;7.12;100.00;100337.84;5132762;27;20385;-45
2024/03/09 05:53:08;;;;;;;69.85;31.75;;;;;;;7.10;100.00;100343.22;5132333;27;20047;-44
2024/03/09 05:55:43;;;;;;;70.45;33.10;;;;;;;6.97;100.00;100342.03;5132386;27;20066;-44
2024/03/09 05:58:13;;;;;;;72.53;33.75;;;;;;;7.01;100.00;100342.75;5132726;27;20054;-44
2024/03/09 06:00:42;;;;;;;74.32;33.88;;;;;;;7.00;100.00;100341.03;5132561;27;20140;-44
2024/03/09 06:03:12;;;;;;;71.63;32.55;;;;;;;7.09;100.00;100340.63;5132856;27;20043;-44
2024/03/09 06:05:42;;;;;;;73.95;33.38;;;;;;;7.09;100.00;100340.63;5132494;27;20057;-46
2024/03/09 06:08:10;;;;;;;70.00;33.55;;;;;;;7.04;100.00;100346.13;5132523;27;20047;-46
2024/03/09 06:10:39;;;;;;;69.35;31.50;;;;;;;7.20;100.00;100346.31;5132091;27;20054;-44
2024/03/09 06:13:19;;;;;;;70.55;32.50;;;;;;;7.15;100.00;100348.31;5132207;27;20043;-46
2024/03/09 06:15:48;;;;;;;71.20;32.50;;;;;;;7.07;100.00;100351.31;5132082;27;20051;-44
2024/03/09 06:18:19;;;;;;;65.47;31.55;;;;;;;7.05;100.00;100352.31;5132331;27;20047;-49
2024/03/09 06:20:47;;;;;;;64.38;31.85;;;;;;;6.95;100.00;100353.63;5132328;27;20075;-45
2024/03/09 06:23:16;;;;;;;59.75;30.02;;;;;;;6.93;100.00;100355.47;5132229;27;20058;-45
2024/03/09 06:25:46;;;;;;;65.60;31.10;;;;;;;6.71;100.00;100358.19;5132251;27;20084;-45
2024/03/09 06:28:15;;;;;;;54.40;27.52;;;;;;;6.88;100.00;100356.56;5132137;27;20110;-42
2024/03/09 06:30:45;;;;;;;58.88;28.05;;;;;;;7.02;100.00;100347.13;5132224;27;20047;-45
2024/03/09 06:33:14;;;;;;;53.72;26.95;;;;;;;7.22;100.00;100349.75;5132865;27;20051;-45
2024/03/09 06:35:42;;;;;;;56.88;27.23;;;;;;;7.39;100.00;100343.69;5132337;27;20051;-45
2024/03/09 06:38:14;;;;;;;55.85;27.75;;;;;;;7.55;100.00;100349.16;5132072;27;20053;-44
2024/03/09 06:40:45;;;;;;;56.92;26.50;;;;;;;7.62;100.00;100350.59;5132023;27;20098;-43
2024/03/09 06:43:16;;;;;;;52.97;26.17;;;;;;;7.66;100.00;100354.84;5131687;27;20047;-51
2024/03/09 06:45:47;;;;;;;52.10;26.80;;;;;;;7.77;100.00;100349.03;5132430;27;20043;-44
2024/03/09 06:48:17;;;;;;;58.28;27.95;;;;;;;7.47;100.00;100349.53;5134686;28;20058;-45
2024/03/09 06:50:46;;;;;;;57.08;28.23;;;;;;;7.50;100.00;100346.72;5133747;28;20465;-44
2024/03/09 06:53:14;;;;;;;51.58;25.42;;;;;;;7.25;100.00;100356.75;5132552;28;20043;-45
2024/03/09 06:55:43;;;;;;;49.20;24.38;;;;;;;7.46;100.00;100353.97;5132036;27;20061;-44
2024/03/09 06:58:12;;;;;;;49.65;24.42;;;;;;;7.38;100.00;100357.91;5132142;27;20043;-44
2024/03/09 07:00:40;;;;;;;47.03;24.85;;;;;;;7.47;100.00;100355.69;5131673;28;20047;-46
2024/03/09 07:03:11;;;;;;;46.22;23.58;;;;;;;7.68;100.00;100364.44;5131561;27;20092;-48
2024/03/09 07:05:39;;;;;;;44.97;23.35;;;;;;;7.57;100.00;100364.09;5131801;27;20047;-45
2024/03/09 07:08:15;;;;;;;45.35;22.95;;;;;;;7.68;100.00;100363.59;5131511;27;20130;-44
2024/03/09 07:10:44;;;;;;;;;;;;;;;7.57;100.00;100360.56;5132251;27;20044;-44
2024/03/09 07:13:13;;;;;;;43.35;21.95;;;;;;;7.78;100.00;100348.09;5131671;27;19942;-44
2024/03/09 07:15:41;;;;;;;47.25;22.77;;;;;;;7.82;100.00;100355.84;5131300;28;20051;-45
2024/03/09 07:18:11;;;;;;;42.63;21.90;;;;;;;7.94;100.00;100349.94;5131802;27;20146;-43
2024/03/09 07:20:40;;;;;;;40.45;21.73;;;;;;;7.95;100.00;100353.47;5131567;27;20130;-44
2024/03/09 07:23:09;;;;;;;42.38;22.98;;;;;;;7.75;100.00;100354.41;5131358;27;20057;-45
2024/03/09 07:25:38;;;;;;;43.67;21.95;;;;;;;8.14;100.00;100356.09;5133130;27;20051;-44
2024/03/09 07:28:08;;;;;;;41.17;22.23;;;;;;;8.33;100.00;100356.94;5135284;27;20043;-44
2024/03/09 07:30:37;;;;;;;41.40;21.23;;;;;;;8.40;100.00;100358.38;5135177;27;20130;-44
2024/03/09 07:33:07;;;;;;;48.05;25.08;;;;;;;8.47;100.00;100358.91;5135315;27;20471;-44
2024/03/09 07:35:37;;;;;;;38.47;21.70;;;;;;;8.81;100.00;100350.13;5134962;27;20143;-44
2024/03/09 07:38:06;;;;;;;37.35;20.70;;;;;;;8.97;100.00;100351.03;5135333;27;20138;-44
2024/03/09 07:40:37;;;;;;;35.42;19.08;;;;;;;8.87;100.00;100350.63;5135002;27;20050;-44
2024/03/09 07:43:06;;;;;;;38.75;19.13;;;;;;;8.59;100.00;100348.56;5134971;27;20137;-44
2024/03/09 07:45:35;;;;;;;34.65;19.45;;;;;;;8.71;100.00;100354.19;5134864;27;20051;-45
2024/03/09 07:48:04;;;;;;;37.08;20.15;;;;;;;8.87;100.00;100357.75;5134835;27;20050;-43
2024/03/09 07:50:33;;;;;;;34.13;18.70;;;;;;;8.88;100.00;100348.88;5135360;27;20043;-44
2024/03/09 07:53:06;;;;;;;32.78;18.80;;;;;;;8.82;100.00;100350.03;5134929;27;20051;-46
2024/03/09 07:55:35;;;;;;;36.05;18.48;;;;;;;8.93;100.00;100362.78;5134788;27;20077;-43
2024/03/09 07:58:04;;;;;;;34.38;18.45;;;;;;;9.00;100.00;100364.19;5134516;27;20055;-44
2024/03/09 08:00:49;;;;;;;31.83;17.25;;;;;;;8.80;100.00;100367.03;5134320;27;20047;-45
2024/03/09 08:03:20;;;;;;;30.98;17.25;;;;;;;9.36;100.00;100360.50;5134480;27;20088;-46
2024/03/09 08:05:49;;;;;;;34.25;17.20;;;;;;;9.23;100.00;100359.47;5134492;27;20062;-44
2024/03/09 08:08:19;;;;;;;30.58;16.38;;;;;;;9.11;100.00;100356.50;5134910;27;20050;-46
2024/03/09 08:10:52;;;;;;;29.63;16.50;;;;;;;8.98;100.00;100365.22;5134387;27;20043;-43
2024/03/09 08:13:22;;;;;;;28.25;15.82;;;;;;;8.88;100.00;100367.50;5135249;27;20476;-43
2024/03/09 08:15:53;;;;;;;32.63;16.23;;;;;;;8.96;100.00;100369.72;5143187;27;20066;-44
2024/03/09 08:18:22;;;;;;;29.10;16.83;;;;;;;9.12;100.00;100365.34;5155282;27;20066;-43
2024/03/09 08:20:51;;;;;;;30.83;16.50;;;;;;;9.21;100.00;100358.69;5154945;27;20589;-43
2024/03/09 08:23:23;;;;;;;29.15;15.90;;;;;;;8.97;100.00;100364.31;5154974;27;20047;-44
2024/03/09 08:25:52;;;;;;;29.45;16.95;;;;;;;8.92;100.00;100361.06;5155193;27;20054;-44
2024/03/09 08:28:21;;;;;;;31.08;16.95;;;;;;;8.83;100.00;100361.53;5154668;27;20487;-43
2024/03/09 08:30:50;;;;;;;30.67;15.63;;;;;;;8.89;100.00;100361.22;5155039;27;20053;-44
2024/03/09 08:33:22;;;;;;;32.28;17.05;;;;;;;8.80;100.00;100364.34;5155338;27;20050;-44
2024/03/09 08:35:50;;;;;;;28.73;16.20;;;;;;;8.93;100.00;100360.13;5154636;27;20091;-43
2024/03/09 08:38:19;;;;;;;32.72;16.88;;;;;;;9.14;100.00;100356.34;5153385;27;20039;-48
2024/03/09 08:40:49;;;;;;;30.63;16.73;;;;;;;9.23;100.00;100354.13;5154908;27;20069;-44
2024/03/09 08:43:18;;;;;;;29.50;15.50;;;;;;;9.18;100.00;100357.06;5154596;27;20096;-44
2024/03/09 08:45:50;;;;;;;25.85;15.30;;;;;;;8.99;100.00;100350.97;5154780;27;20043;-44
2024/03/09 08:48:18;;;;;;;28.95;15.70;;;;;;;9.10;100.00;100354.78;5154489;27;20360;-43
2024/03/09 08:50:47;;;;;;;29.75;16.27;;;;;;;9.19;100.00;100353.44;5154461;27;20050;-44
2024/03/09 08:53:17;;;;;;;27.58;15.90;;;;;;;9.41;100.00;100348.69;5154848;27;20051;-43
2024/03/09 08:55:47;;;;;;;30.25;16.23;;;;;;;9.56;100.00;100347.00;5154376;27;20053;-43
2024/03/09 08:58:17;;;;;;;27.38;15.93;;;;;;;9.68;100.00;100350.81;5154480;27;20050;-44
2024/03/09 09:00:46;;;;;;;28.15;15.77;;;;;;;9.62;100.00;100349.31;5153986;27;20518;-43
2024/03/09 09:03:17;;;;;;;27.60;15.38;;;;;;;9.49;100.00;100355.41;5132045;27;20055;-46
2024/03/09 09:05:45;;;;;;;30.27;15.40;;;;;;;9.54;100.00;100346.22;5124480;27;20095;-43
2024/03/09 09:08:24;;;;;;;26.13;14.90;;;;;;;9.67;100.00;100352.59;5132012;27;20078;-44
2024/03/09 09:10:53;;;;;;;26.73;14.73;;;;;;;9.72;100.00;100353.19;5124540;27;20047;-43
2024/03/09 09:13:23;;;;;;;25.60;14.98;;;;;;;9.71;100.00;100356.81;5132086;27;20404;-43
2024/03/09 09:15:52;;;;;;;25.13;14.50;;;;;;;9.90;100.00;100347.81;5131844;27;20564;-45
2024/03/09 09:18:22;;;;;;;25.58;14.73;;;;;;;9.94;100.00;100349.34;5132417;27;20043;-43
2024/03/09 09:20:52;;;;;;;25.77;15.35;;;;;;;9.95;100.00;100349.28;5131373;27;20070;-44
2024/03/09 09:23:21;;;;;;;26.25;14.68;;;;;;;10.17;100.00;100345.41;5131733;27;20155;-44
2024/03/09 09:25:50;;;;;;;28.85;15.10;;;;;;;10.43;100.00;100349.28;5131745;27;20039;-43
2024/03/09 09:28:19;;;;;;;24.20;13.95;;;;;;;10.32;100.00;100345.38;5131452;27;20047;-42
2024/03/09 09:30:49;;;;;;;24.73;14.02;;;;;;;10.36;100.00;100342.56;5130456;27;20135;-43
2024/03/09 09:33:17;;;;;;;26.92;14.63;;;;;;;10.44;100.00;100349.19;5131581;27;20434;-43
2024/03/09 09:35:46;;;;;;;25.80;14.48;;;;;;;10.57;100.00;100341.31;5131785;27;20050;-42
2024/03/09 09:38:17;;;;;;;25.08;14.13;;;;;;;10.68;100.00;100346.00;5131672;27;20046;-43
2024/03/09 09:40:48;;;;;;;23.35;14.10;;;;;;;10.65;100.00;100344.41;5130123;27;20047;-44
2024/03/09 09:43:18;;;;;;;25.02;14.00;;;;;;;10.47;100.00;100341.00;5131712;27;20188;-43
2024/03/09 09:45:51;;;;;;;22.52;13.43;;;;;;;10.78;100.00;100331.19;5131623;27;20051;-44
2024/03/09 09:48:20;;;;;;;;;;;;;;;10.65;100.00;100325.72;5131882;27;20066;-44
2024/03/09 09:50:50;;;;;;;22.45;12.60;;;;;;;10.60;100.00;100319.78;5130546;27;19925;-45
2024/03/09 09:53:21;;;;;;;24.80;13.88;;;;;;;10.52;100.00;100316.75;5131229;27;20183;-45
2024/03/09 09:55:50;;;;;;;23.42;13.13;;;;;;;10.48;100.00;100308.03;5131807;27;20139;-45
2024/03/09 09:58:18;;;;;;;23.20;13.07;;;;;;;10.62;100.00;100312.56;5131512;27;20381;-42
2024/03/09 10:00:48;;;;;;;20.77;13.23;;;;;;;10.59;100.00;100307.41;5129909;27;20124;-46
2024/03/09 10:03:18;;;;;;;22.27;12.75;;;;;;;10.91;100.00;100296.63;5131212;27;20049;-44
2024/03/09 10:05:47;;;;;;;22.00;12.38;;;;;;;11.04;100.00;100300.25;5130807;27;20422;-46
2024/03/09 10:08:16;;;;;;;21.02;12.45;;;;;;;11.11;100.00;100278.44;5131179;27;20047;-45
2024/03/09 10:10:47;;;;;;;19.42;12.27;;;;;;;11.10;100.00;100294.56;5129688;27;20116;-44
2024/03/09 10:13:18;;;;;;;21.83;12.73;;;;;;;11.17;100.00;100291.38;5130982;27;20074;-44
2024/03/09 10:15:49;;;;;;;21.67;12.48;;;;;;;10.94;100.00;100299.97;5130968;27;20088;-44
2024/03/09 10:18:19;;;;;;;21.35;13.23;;;;;;;11.24;100.00;100296.34;5130295;27;20086;-44
2024/03/09 10:20:49;;;;;;;20.80;11.93;;;;;;;11.41;100.00;100297.03;5129287;27;20612;-44
2024/03/09 10:23:19;;;;;;;20.13;12.13;;;;;;;11.58;100.00;100285.28;5130742;27;20047;-44
2024/03/09 10:25:48;;;;;;;21.00;11.98;;;;;;;11.35;100.00;100284.03;5122136;27;20047;-43
2024/03/09 10:28:18;;;;;;;21.52;13.40;;;;;;;11.57;100.00;100269.31;5130464;27;20043;-46
2024/03/09 10:30:46;;;;;;;22.52;12.52;;;;;;;11.83;100.00;100268.53;5129473;27;20047;-43
2024/03/09 10:33:16;;;;;;;21.15;12.35;;;;;;;11.94;100.00;100274.03;5130981;27;20100;-43
2024/03/09 10:35:48;;;;;;;19.58;11.88;;;;;;;11.82;100.00;100274.00;5130484;27;20047;-43
2024/03/09 10:38:18;;;;;;;20.70;11.82;;;;;;;11.52;100.00;100272.28;5130626;27;20051;-44
2024/03/09 10:40:48;;;;;;;20.05;12.68;;;;;;;11.52;100.00;100268.78;5129344;27;20052;-46
2024/03/09 10:43:19;;;;;;;19.98;12.15;;;;;;;11.42;100.00;100272.03;5130044;27;20556;-43
2024/03/09 10:45:52;;;;;;;22.30;12.30;;;;;;;11.57;100.00;100269.31;5130428;27;20130;-44
2024/03/09 10:48:23;;;;;;;23.27;12.73;;;;;;;11.52;100.00;100264.28;5130396;27;20043;-43
2024/03/09 10:51:14;;;;;;;22.08;12.90;;;;;;;11.41;100.00;100258.78;5129290;27;20049;-48
2024/03/09 10:53:56;;;;;;;20.45;12.48;;;;;;;11.47;100.00;100253.03;5130281;28;20129;-44
2024/03/09 10:56:25;;;;;;;22.88;13.32;;;;;;;11.41;100.00;100250.75;5126202;28;20044;-43
2024/03/09 10:58:55;;;;;;;22.85;12.77;;;;;;;11.28;100.00;100250.66;5129325;28;20043;-45
2024/03/09 11:01:24;;;;;;;20.10;12.30;;;;;;;11.15;100.00;100241.72;5131763;27;20047;-45
2024/03/09 11:03:55;;;;;;;22.38;12.88;;;;;;;11.63;100.00;100244.88;5134656;27;20053;-44
2024/03/09 11:06:25;;;;;;;20.58;12.02;;;;;;;11.84;100.00;100238.19;5134825;27;20047;-52
2024/03/09 11:08:56;;;;;;;21.73;11.38;;;;;;;11.81;100.00;100241.06;5134401;27;20039;-43
2024/03/09 11:11:27;;;;;;;18.88;11.70;;;;;;;12.20;100.00;100239.38;5133193;27;20070;-44
2024/03/09 11:13:56;;;;;;;20.02;12.52;;;;;;;12.44;100.00;100243.06;5134519;27;20050;-43
2024/03/09 11:16:24;;;;;;;21.63;11.38;;;;;;;12.50;100.00;100239.97;5134506;27;20047;-44
2024/03/09 11:18:55;;;;;;;19.48;11.85;;;;;;;12.16;100.00;100238.75;5134295;27;20099;-44
2024/03/09 11:21:29;;;;;;;16.85;10.77;;;;;;;11.76;100.00;100235.13;5132681;27;20143;-43
2024/03/09 11:24:00;;;;;;;18.63;10.77;;;;;;;11.65;100.00;100234.97;5134331;27;20241;-45